createdAt,value
2018-09-17T00:00:30.097Z,99461.75
2018-09-17T00:03:33.241Z,99470.44
2018-09-17T00:06:36.316Z,99477.44
2018-09-17T00:09:39.394Z,99476.30
2018-09-17T00:12:42.544Z,99473.87
2018-09-17T00:15:45.698Z,99472.56
2018-09-17T00:18:48.723Z,99473.48
2018-09-17T00:21:51.958Z,99473.31
2018-09-17T00:24:54.974Z,99468.44
2018-09-17T00:27:59.558Z,99475.80
2018-09-17T00:31:02.681Z,99476.14
2018-09-17T00:34:05.749Z,99482.04
2018-09-17T00:37:08.745Z,99484.16
2018-09-17T00:40:11.816Z,99480.39
2018-09-17T00:43:14.958Z,99470.94
2018-09-17T00:46:18.044Z,99472.73
2018-09-17T00:49:21.104Z,99466.68
2018-09-17T00:52:24.097Z,99464.77
2018-09-17T00:55:27.181Z,99457.80
2018-09-17T00:58:30.273Z,99450.80
2018-09-17T01:01:33.370Z,99448.33
2018-09-17T01:04:36.465Z,99457.48
2018-09-17T01:07:39.552Z,99461.11
2018-09-17T01:10:42.841Z,99470.61
2018-09-17T01:13:46.087Z,99478.28
2018-09-17T01:16:49.346Z,99483.02
2018-09-17T01:19:52.439Z,99495.16
2018-09-17T01:22:55.616Z,99499.58
2018-09-17T01:25:58.738Z,99499.20
2018-09-17T01:29:01.846Z,99497.36
2018-09-17T01:32:05.102Z,99497.08
2018-09-17T01:35:08.264Z,99502.45
2018-09-17T01:38:11.413Z,99496.94
2018-09-17T01:41:14.580Z,99488.02
2018-09-17T01:44:17.740Z,99490.66
2018-09-17T01:47:22.915Z,99482.20
2018-09-17T01:50:26.074Z,99480.56
2018-09-17T01:53:29.306Z,99475.39
2018-09-17T01:56:32.456Z,99481.25
2018-09-17T01:59:35.609Z,99482.97
2018-09-17T02:02:38.794Z,99484.91
2018-09-17T02:05:41.962Z,99483.95
2018-09-17T02:08:45.321Z,99492.36
2018-09-17T02:11:48.545Z,99491.86
2018-09-17T02:14:51.779Z,99495.47
2018-09-17T02:17:54.895Z,99493.83
2018-09-17T02:20:58.057Z,99494.62
2018-09-17T02:24:01.150Z,99496.03
2018-09-17T02:27:04.394Z,99501.75
2018-09-17T02:30:07.521Z,99507.49
2018-09-17T02:33:10.762Z,99511.94
2018-09-17T02:36:14.055Z,99508.72
2018-09-17T02:39:17.214Z,99510.66
2018-09-17T02:42:20.366Z,99504.02
2018-09-17T02:45:23.499Z,99496.90
2018-09-17T02:48:26.652Z,99498.04
2018-09-17T02:51:29.822Z,99505.58
2018-09-17T02:54:33.025Z,99508.99
2018-09-17T02:57:36.830Z,99517.80
2018-09-17T03:00:39.968Z,99520.22
2018-09-17T03:04:14.209Z,99515.81
2018-09-17T03:07:17.440Z,99515.25
2018-09-17T03:10:20.625Z,99505.36
2018-09-17T03:13:23.848Z,99499.83
2018-09-17T03:16:27.018Z,99502.58
2018-09-17T03:19:30.289Z,99502.61
2018-09-17T03:22:33.397Z,99500.45
2018-09-17T03:25:36.557Z,99506.13
2018-09-17T03:28:39.784Z,99514.16
2018-09-17T03:31:42.993Z,99506.49
2018-09-17T03:34:46.163Z,99511.72
2018-09-17T03:37:49.309Z,99511.20
2018-09-17T03:40:52.386Z,99508.08
2018-09-17T03:43:55.483Z,99502.67
2018-09-17T03:46:58.489Z,99509.38
2018-09-17T03:50:01.663Z,99503.45
2018-09-17T03:53:04.840Z,99509.23
2018-09-17T03:56:08.039Z,99515.61
2018-09-17T03:59:11.202Z,99521.09
2018-09-17T04:02:14.424Z,99522.75
2018-09-17T04:05:17.504Z,99523.75
2018-09-17T04:08:20.698Z,99517.18
2018-09-17T04:11:24.777Z,99518.01
2018-09-17T04:14:27.857Z,99520.20
2018-09-17T04:17:31.530Z,99520.59
2018-09-17T04:20:34.678Z,99522.88
2018-09-17T04:23:38.326Z,99520.66
2018-09-17T04:26:41.508Z,99516.52
2018-09-17T04:29:44.740Z,99515.18
2018-09-17T04:32:48.015Z,99513.94
2018-09-17T04:35:51.198Z,99508.11
2018-09-17T04:38:54.426Z,99509.75
2018-09-17T04:41:57.582Z,99509.97
2018-09-17T04:45:00.745Z,99515.94
2018-09-17T04:48:03.924Z,99519.33
2018-09-17T04:51:07.131Z,99521.94
2018-09-17T04:54:11.289Z,99528.09
2018-09-17T04:57:14.502Z,99531.86
2018-09-17T05:00:17.565Z,99530.11
2018-09-17T05:03:20.734Z,99525.71
2018-09-17T05:06:23.984Z,99528.23
2018-09-17T05:09:27.138Z,99529.44
2018-09-17T05:12:30.292Z,99526.41
2018-09-17T05:15:33.451Z,99522.20
2018-09-17T05:18:36.700Z,99522.44
2018-09-17T05:21:39.938Z,99532.62
2018-09-17T05:24:43.074Z,99528.62
2018-09-17T05:27:46.241Z,99537.38
2018-09-17T05:30:49.382Z,99544.96
2018-09-17T05:33:52.775Z,99541.16
2018-09-17T05:36:55.949Z,99532.08
2018-09-17T05:39:59.153Z,99536.09
2018-09-17T05:43:02.295Z,99530.22
2018-09-17T05:46:05.494Z,99537.26
2018-09-17T05:49:08.597Z,99536.77
2018-09-17T05:52:11.729Z,99534.94
2018-09-17T05:55:14.943Z,99533.83
2018-09-17T05:58:18.123Z,99537.83
2018-09-17T06:01:21.542Z,99537.85
2018-09-17T06:04:24.791Z,99548.83
2018-09-17T06:07:28.041Z,99545.80
2018-09-17T06:10:31.223Z,99552.95
2018-09-17T06:13:34.488Z,99552.23
2018-09-17T06:16:37.721Z,99556.98
2018-09-17T06:19:40.890Z,99550.24
2018-09-17T06:22:44.132Z,99542.53
2018-09-17T06:25:47.250Z,99538.45
2018-09-17T06:28:50.474Z,99533.64
2018-09-17T06:31:53.513Z,99532.36
2018-09-17T06:34:56.745Z,99533.17
2018-09-17T06:37:59.938Z,99540.19
2018-09-17T06:41:03.045Z,99543.02
2018-09-17T06:44:06.153Z,99545.52
2018-09-17T06:47:09.290Z,99542.19
2018-09-17T06:50:12.587Z,99548.37
2018-09-17T06:53:15.748Z,99548.72
2018-09-17T06:56:18.851Z,99547.19
2018-09-17T06:59:22.788Z,99551.36
2018-09-17T07:02:25.932Z,99550.00
2018-09-17T07:05:29.037Z,99546.16
2018-09-17T07:08:32.219Z,99548.72
2018-09-17T07:11:35.409Z,99545.56
2018-09-17T07:14:38.600Z,99552.75
2018-09-17T07:17:41.688Z,99551.91
2018-09-17T07:20:44.882Z,99564.33
2018-09-17T07:23:47.938Z,99551.50
2018-09-17T07:26:51.031Z,99548.83
2018-09-17T07:29:54.143Z,99550.64
2018-09-17T07:32:57.267Z,99532.98
2018-09-17T07:36:00.349Z,99531.56
2018-09-17T07:39:05.405Z,99533.41
2018-09-17T07:42:08.507Z,99536.59
2018-09-17T07:45:11.691Z,99530.46
2018-09-17T07:48:14.854Z,99519.85
2018-09-17T07:51:17.983Z,99522.39
2018-09-17T07:54:21.198Z,99529.45
2018-09-17T07:57:24.354Z,99532.62
2018-09-17T08:00:27.470Z,99536.28
2018-09-17T08:03:30.736Z,99534.11
2018-09-17T08:06:33.893Z,99528.50
2018-09-17T08:09:37.201Z,99533.86
2018-09-17T08:12:40.327Z,99528.98
2018-09-17T08:15:43.485Z,99542.52
2018-09-17T08:18:46.694Z,99541.10
2018-09-17T08:21:50.149Z,99552.70
2018-09-17T08:24:53.304Z,99547.07
2018-09-17T08:27:56.537Z,99543.42
2018-09-17T08:30:59.727Z,99545.35
2018-09-17T08:34:02.949Z,99536.22
2018-09-17T08:37:06.243Z,99537.94
2018-09-17T08:40:09.405Z,99533.74
2018-09-17T08:43:12.610Z,99519.12
2018-09-17T08:46:15.831Z,99520.13
2018-09-17T08:49:18.983Z,99524.60
2018-09-17T08:52:22.157Z,99527.98
2018-09-17T08:55:30.899Z,99526.98
2018-09-17T08:58:34.460Z,99529.42
2018-09-17T09:01:43.154Z,99526.52
2018-09-17T09:04:51.998Z,99522.05
2018-09-17T09:07:55.702Z,99519.05
2018-09-17T09:11:04.531Z,99510.12
2018-09-17T09:14:12.134Z,99495.77
2018-09-17T09:17:15.278Z,99499.89
2018-09-17T09:20:18.523Z,99499.70
2018-09-17T09:23:22.601Z,99492.99
2018-09-17T09:26:25.840Z,99488.68
2018-09-17T09:29:28.983Z,99488.56
2018-09-17T09:32:32.292Z,99485.42
2018-09-17T09:35:35.448Z,99479.47
2018-09-17T09:38:38.640Z,99477.90
2018-09-17T09:41:41.958Z,99473.58
2018-09-17T09:44:46.256Z,99469.33
2018-09-17T09:47:49.500Z,99469.80
2018-09-17T09:50:52.629Z,99470.41
2018-09-17T09:53:55.721Z,99467.16
2018-09-17T09:56:58.914Z,99469.30
2018-09-17T10:00:02.050Z,99462.36
2018-09-17T10:03:10.957Z,99459.22
2018-09-17T10:06:15.194Z,99458.63
2018-09-17T10:09:24.110Z,99457.20
2018-09-17T10:13:32.434Z,99458.66
2018-09-17T10:16:35.652Z,99453.19
2018-09-17T10:19:44.686Z,99453.27
2018-09-17T10:22:47.846Z,99449.36
2018-09-17T10:25:51.184Z,99449.23
2018-09-17T10:28:54.327Z,99434.65
2018-09-17T10:31:57.369Z,99422.59
2018-09-17T10:35:00.472Z,99411.80
2018-09-17T10:38:03.597Z,99405.34
2018-09-17T10:41:06.775Z,99405.01
2018-09-17T10:44:19.239Z,99403.08
2018-09-17T10:47:22.398Z,99402.09
2018-09-17T10:50:25.695Z,99390.81
2018-09-17T10:53:28.881Z,99384.86
2018-09-17T10:56:32.113Z,99379.56
2018-09-17T10:59:35.285Z,99374.72
2018-09-17T11:02:38.372Z,99388.17
2018-09-17T11:05:42.903Z,99388.64
2018-09-17T11:08:46.124Z,99384.97
2018-09-17T11:11:49.348Z,99380.89
2018-09-17T11:14:52.681Z,99371.97
2018-09-17T11:17:55.869Z,99369.37
2018-09-17T11:20:59.036Z,99361.59
2018-09-17T11:24:02.217Z,99344.70
2018-09-17T11:27:05.541Z,99334.97
2018-09-17T11:30:08.875Z,99348.22
2018-09-17T11:33:12.565Z,99330.39
2018-09-17T11:36:15.773Z,99366.63
2018-09-17T11:39:18.898Z,99360.87
2018-09-17T11:42:22.113Z,99342.89
2018-09-17T11:45:25.253Z,99338.14
2018-09-17T11:48:28.367Z,99318.93
2018-09-17T11:51:31.521Z,99336.56
2018-09-17T11:54:34.650Z,99327.67
2018-09-17T11:57:37.790Z,99313.80
2018-09-17T12:00:46.639Z,99305.97
2018-09-17T12:03:55.443Z,99293.92
2018-09-17T12:07:04.232Z,99328.32
2018-09-17T12:10:07.576Z,99338.47
2018-09-17T12:13:10.947Z,99304.16
2018-09-17T12:16:14.012Z,99303.59
2018-09-17T12:19:17.093Z,99297.19
2018-09-17T12:22:20.227Z,99269.50
2018-09-17T12:25:23.500Z,99225.50
2018-09-17T12:28:26.525Z,99221.29
2018-09-17T12:31:29.646Z,99249.13
2018-09-17T12:34:32.858Z,99225.42
2018-09-17T12:37:36.053Z,99193.85
2018-09-17T12:40:39.199Z,99169.12
2018-09-17T12:43:42.429Z,99226.23
2018-09-17T12:46:45.615Z,99215.65
2018-09-17T12:49:48.742Z,99207.61
2018-09-17T12:52:51.958Z,99183.16
2018-09-17T12:55:55.202Z,99170.52
2018-09-17T12:58:58.425Z,99103.38
2018-09-17T13:02:01.510Z,99255.01
2018-09-17T13:05:05.049Z,99204.38
2018-09-17T13:08:08.216Z,99159.71
2018-09-17T13:11:11.382Z,99180.08
2018-09-17T13:14:14.515Z,99180.59
2018-09-17T13:17:17.710Z,99085.05
2018-09-17T13:20:20.762Z,99136.45
2018-09-17T13:23:23.953Z,99060.62
2018-09-17T13:26:27.115Z,99159.16
2018-09-17T13:29:30.266Z,99139.53
2018-09-17T13:32:33.414Z,99062.58
2018-09-17T13:35:36.802Z,99035.84
2018-09-17T13:38:39.892Z,99020.70
2018-09-17T13:41:43.029Z,98892.59
2018-09-17T13:44:46.095Z,98773.73
2018-09-17T13:47:49.324Z,98744.83
2018-09-17T13:50:52.548Z,98877.59
2018-09-17T13:53:55.769Z,99066.42
2018-09-17T13:56:58.974Z,99009.23
2018-09-17T14:00:02.151Z,99082.44
2018-09-17T14:03:05.354Z,98983.21
2018-09-17T14:06:08.545Z,98912.91
2018-09-17T14:09:12.625Z,98779.73
2018-09-17T14:12:15.825Z,98705.33
2018-09-17T14:15:19.145Z,98704.27
2018-09-17T14:18:22.433Z,98880.41
2018-09-17T14:21:25.877Z,98877.85
2018-09-17T14:24:29.402Z,98905.49
2018-09-17T14:27:32.652Z,98886.59
2018-09-17T14:30:35.865Z,98981.13
2018-09-17T14:33:39.927Z,98905.88
2018-09-17T14:36:43.229Z,98892.84
2018-09-17T14:39:46.326Z,98909.15
2018-09-17T14:42:49.600Z,98851.59
2018-09-17T14:45:52.840Z,98829.91
2018-09-17T14:48:56.184Z,98800.45
2018-09-17T14:51:59.446Z,98828.70
2018-09-17T14:55:02.603Z,98903.86
2018-09-17T14:58:05.876Z,98962.67
2018-09-17T15:01:09.021Z,99006.24
2018-09-17T15:04:12.960Z,99046.42
2018-09-17T15:07:16.071Z,99062.70
2018-09-17T15:10:19.333Z,99104.81
2018-09-17T15:13:22.411Z,99161.69
2018-09-17T15:17:29.811Z,99187.14
2018-09-17T15:20:32.900Z,99200.42
2018-09-17T15:23:36.167Z,99150.86
2018-09-17T15:26:39.539Z,99220.89
2018-09-17T15:29:42.877Z,99172.75
2018-09-17T15:32:46.283Z,99162.41
2018-09-17T15:35:49.389Z,99220.53
2018-09-17T15:38:52.667Z,99216.76
2018-09-17T15:41:55.779Z,99205.78
2018-09-17T15:44:59.455Z,99204.62
2018-09-17T15:51:16.120Z,99207.58
2018-09-17T15:54:19.381Z,99146.28
2018-09-17T15:57:22.695Z,99174.19
2018-09-17T16:00:25.761Z,99132.56
2018-09-17T16:03:28.872Z,99133.28
2018-09-17T16:06:32.099Z,99123.13
2018-09-17T16:09:35.268Z,99125.09
2018-09-17T16:12:38.310Z,99097.58
2018-09-17T16:15:41.470Z,99116.42
2018-09-17T16:18:44.537Z,99127.66
2018-09-17T16:21:47.570Z,99112.69
2018-09-17T16:24:50.661Z,99111.58
2018-09-17T16:27:53.783Z,99107.77
2018-09-17T16:30:57.109Z,99145.88
2018-09-17T16:34:00.206Z,99161.51
2018-09-17T16:37:03.280Z,99148.18
2018-09-17T16:40:07.033Z,99167.02
2018-09-17T16:43:10.544Z,99168.63
2018-09-17T16:46:13.827Z,99143.11
2018-09-17T16:49:17.018Z,99146.08
2018-09-17T16:52:20.042Z,99150.30
2018-09-17T16:55:23.421Z,99156.45
2018-09-17T16:58:26.616Z,99133.69
2018-09-17T17:01:29.858Z,99132.78
2018-09-17T17:04:33.104Z,99142.09
2018-09-17T17:07:36.377Z,99135.50
2018-09-17T17:10:39.698Z,99131.06
2018-09-17T17:13:43.012Z,99128.47
2018-09-17T17:16:46.753Z,99125.13
2018-09-17T17:19:49.999Z,99127.11
2018-09-17T17:22:53.191Z,99113.73
2018-09-17T17:25:56.390Z,99116.09
2018-09-17T17:28:59.696Z,99119.44
2018-09-17T17:32:02.873Z,99106.77
2018-09-17T17:35:06.320Z,99104.38
2018-09-17T17:38:09.429Z,99108.63
2018-09-17T17:41:12.643Z,99110.77
2018-09-17T17:44:15.745Z,99102.77
2018-09-17T17:47:18.969Z,99102.45
2018-09-17T17:50:22.123Z,99101.23
2018-09-17T17:53:25.335Z,99100.52
2018-09-17T17:56:28.541Z,99109.94
2018-09-17T17:59:31.707Z,99109.41
2018-09-17T18:02:34.871Z,99102.95
2018-09-17T18:05:38.121Z,99105.71
2018-09-17T18:08:41.317Z,99110.49
2018-09-17T18:11:44.837Z,99108.55
2018-09-17T18:14:48.303Z,99107.55
2018-09-17T18:17:51.647Z,99105.23
2018-09-17T18:20:54.930Z,99108.73
2018-09-17T18:23:58.089Z,99111.89
2018-09-17T18:27:01.344Z,99113.07
2018-09-17T18:30:04.656Z,99109.34
2018-09-17T18:33:08.048Z,99108.23
2018-09-17T18:36:11.490Z,99114.00
2018-09-17T18:39:14.739Z,99110.91
2018-09-17T18:42:18.502Z,99113.62
2018-09-17T18:45:21.713Z,99115.28
2018-09-17T18:48:24.862Z,99118.75
2018-09-17T18:51:27.985Z,99119.59
2018-09-17T18:54:31.070Z,99131.63
2018-09-17T18:57:34.252Z,99133.88
2018-09-17T19:00:37.247Z,99129.90
2018-09-17T19:03:43.271Z,99125.30
2018-09-17T19:06:46.927Z,99127.94
2018-09-17T19:09:50.498Z,99128.28
2018-09-17T19:12:54.716Z,99132.01
2018-09-17T19:15:58.458Z,99130.33
2018-09-17T19:19:01.651Z,99132.45
2018-09-17T19:22:10.480Z,99133.09
2018-09-17T19:25:15.088Z,99134.19
2018-09-17T19:28:23.980Z,99133.26
2018-09-17T19:31:27.329Z,99131.16
2018-09-17T19:34:31.237Z,99123.49
2018-09-17T19:37:40.018Z,99127.30
2018-09-17T19:40:43.405Z,99128.91
2018-09-17T19:43:46.743Z,99123.16
2018-09-17T19:46:49.988Z,99124.43
2018-09-17T19:49:53.301Z,99130.91
2018-09-17T19:52:56.441Z,99127.55
2018-09-17T19:56:00.709Z,99126.74
2018-09-17T19:59:09.603Z,99128.34
2018-09-17T20:02:12.737Z,99121.39
2018-09-17T20:05:21.667Z,99122.02
2018-09-17T20:08:24.845Z,99118.80
2018-09-17T20:11:28.475Z,99114.62
2018-09-17T20:14:31.787Z,99120.12
2018-09-17T20:17:35.314Z,99121.29
2018-09-17T20:20:38.433Z,99120.53
2018-09-17T20:23:41.635Z,99114.14
2018-09-17T20:26:44.873Z,99118.23
2018-09-17T20:29:48.262Z,99117.63
2018-09-17T20:32:52.048Z,99116.30
2018-09-17T20:35:55.327Z,99110.73
2018-09-17T20:38:59.482Z,99111.94
2018-09-17T20:42:02.672Z,99111.09
2018-09-17T20:45:06.323Z,99110.38
2018-09-17T20:48:09.687Z,99121.59
2018-09-17T20:51:12.880Z,99117.05
2018-09-17T20:54:16.251Z,99115.30
2018-09-17T20:57:19.415Z,99116.55
2018-09-17T21:00:22.558Z,99124.44
2018-09-17T21:03:25.691Z,99119.27
2018-09-17T21:06:28.895Z,99116.33
2018-09-17T21:09:32.232Z,99115.61
2018-09-17T21:12:35.485Z,99120.59
2018-09-17T21:15:38.588Z,99113.58
2018-09-17T21:18:41.965Z,99120.69
2018-09-17T21:21:45.138Z,99115.91
2018-09-17T21:24:48.345Z,99106.06
2018-09-17T21:27:52.668Z,99110.04
2018-09-17T21:30:56.108Z,99119.97
2018-09-17T21:33:59.250Z,99112.22
2018-09-17T21:37:02.625Z,99114.23
2018-09-17T21:40:05.927Z,99108.03
2018-09-17T21:43:09.224Z,99112.39
2018-09-17T21:46:12.366Z,99111.40
2018-09-17T21:49:15.590Z,99105.11
2018-09-17T21:52:18.855Z,99102.88
2018-09-17T21:55:21.956Z,99107.38
2018-09-17T21:58:25.244Z,99104.05
2018-09-17T22:01:28.545Z,99109.95
2018-09-17T22:04:31.770Z,99107.97
2018-09-17T22:07:35.053Z,99105.30
2018-09-17T22:10:38.686Z,99100.06
2018-09-17T22:13:41.878Z,99101.52
2018-09-17T22:16:45.450Z,99101.59
2018-09-17T22:19:48.781Z,99098.26
2018-09-17T22:22:51.949Z,99100.43
2018-09-17T22:25:55.243Z,99094.39
2018-09-17T22:28:58.369Z,99098.69
2018-09-17T22:32:01.540Z,99089.55
2018-09-17T22:35:04.833Z,99091.02
2018-09-17T22:38:08.041Z,99096.09
2018-09-17T22:41:11.267Z,99095.36
2018-09-17T22:44:14.515Z,99092.92
2018-09-17T22:47:17.890Z,99096.11
2018-09-17T22:50:21.245Z,99097.58
2018-09-17T22:53:24.446Z,99096.28
2018-09-17T22:56:27.687Z,99095.22
2018-09-17T22:59:30.907Z,99094.65
2018-09-17T23:02:34.068Z,99092.05
2018-09-17T23:05:37.282Z,99094.69
2018-09-17T23:08:40.486Z,99093.19
2018-09-17T23:11:43.650Z,99094.31
2018-09-17T23:14:46.925Z,99097.75
2018-09-17T23:17:50.261Z,99094.30
2018-09-17T23:20:53.423Z,99093.17
2018-09-17T23:23:56.621Z,99090.73
2018-09-17T23:27:06.652Z,99088.73
2018-09-17T23:30:09.822Z,99086.85
2018-09-17T23:33:12.995Z,99081.16
2018-09-17T23:36:16.166Z,99082.79
2018-09-17T23:39:19.370Z,99075.59
2018-09-17T23:42:22.610Z,99073.96
2018-09-17T23:45:25.769Z,99074.28
2018-09-17T23:48:28.910Z,99078.31
2018-09-17T23:51:32.049Z,99078.16
2018-09-17T23:54:36.284Z,99071.71
2018-09-17T23:57:39.529Z,99070.73
